Catàleg de serveis del Meteocat
Campanya meteocatpedra

Dades de l'estació automàtica Lladurs

?
?
Resum diari 21:30 TU
Dades diàries de l'estació meteorològica
Temperatura mitjana 5.4 °C
Temperatura màxima 11.9 °C 13:00 TU
Temperatura mínima 0.6 °C 4:11 TU
Humitat relativa mitjana 85%
Precipitació acumulada 0.0 mm
Ratxa màxima del vent (2 m) 18.7 km/h - 217º 14:32 TU
Irradiació solar global 8.3 MJ/m2

El tram horari està expressat en Temps Universal (TU). Cal sumar una hora en horari d'hivern i dues en horari d'estiu per passar a l'hora oficial.

Lladurs

Metadades estació meteorol´gica
Municipi Lladurs
Comarca Solsonès
Altitud 785 m
Data alta 05.05.1998
Estat actual Operativa
Dades de període
Període
TU
TM
°C
TX
°C
TN
°C
HRM
%
PPT
mm
VVM (2 m)
km/h
DVM (2 m)
graus
VVX (2 m)
km/h
RS
W/m2
00:00 - 00:30 1.8 2.0 1.6 95 0.0 1.4 39 3.6 0
00:30 - 01:00 1.9 2.1 1.8 96 0.0 1.1 22 3.6 0
01:00 - 01:30 2.3 2.7 1.9 97 0.0 0.7 37 4.3 0
01:30 - 02:00 2.0 2.2 1.8 98 0.0 2.9 68 5.4 0
02:00 - 02:30 1.9 2.3 1.4 98 0.0 2.5 33 7.2 0
02:30 - 03:00 1.2 1.4 1.0 98 0.0 1.8 147 5.0 0
03:00 - 03:30 1.1 1.4 0.9 99 0.0 3.2 58 9.7 0
03:30 - 04:00 1.2 1.4 1.0 98 0.0 1.4 108 4.0 0
04:00 - 04:30 0.8 1.2 0.6 97 0.0 0.7 306 2.9 0
04:30 - 05:00 1.9 2.4 1.2 96 0.0 1.4 293 3.2 0
05:00 - 05:30 1.9 2.0 1.7 95 0.0 0.4 353 2.5 0
05:30 - 06:00 1.5 1.9 1.2 95 0.0 1.8 42 4.7 0
06:00 - 06:30 2.3 2.6 2.0 92 0.0 2.2 103 9.4 0
06:30 - 07:00 2.6 2.8 2.5 90 0.0 2.2 93 7.2 3
07:00 - 07:30 2.7 2.9 2.6 91 0.0 0.7 228 2.5 17
07:30 - 08:00 3.1 3.3 2.6 87 0.0 2.2 76 8.6 33
08:00 - 08:30 3.6 4.1 3.1 85 0.0 0.4 289 2.9 52
08:30 - 09:00 4.8 5.2 4.1 80 0.0 1.8 334 5.4 92
09:00 - 09:30 5.7 6.2 5.2 76 0.0 3.6 5 9.4 140
09:30 - 10:00 6.9 7.3 6.2 74 0.0 0.7 170 5.4 146
10:00 - 10:30 7.0 7.4 6.8 77 0.0 1.8 208 4.0 163
10:30 - 11:00 7.7 8.0 7.2 77 0.0 1.4 188 3.6 208
11:00 - 11:30 8.6 9.3 8.1 73 0.0 1.4 196 4.7 382
11:30 - 12:00 9.1 9.9 8.7 70 0.0 2.9 231 7.6 494
12:00 - 12:30 10.6 11.6 9.4 65 0.0 2.5 181 9.7 586
12:30 - 13:00 11.3 11.8 10.9 63 0.0 5.0 197 11.5 504
13:00 - 13:30 11.6 11.9 10.9 61 0.0 6.1 204 13.3 462
13:30 - 14:00 11.2 11.6 10.8 62 0.0 6.5 197 14.0 412
14:00 - 14:30 10.3 11.0 9.8 66 0.0 8.6 212 14.8 346
14:30 - 15:00 9.8 10.0 9.5 67 0.0 8.3 223 18.7 281
15:00 - 15:30 9.9 10.5 9.0 70 0.0 5.4 203 14.8 197
15:30 - 16:00 8.4 8.9 7.9 77 0.0 5.4 217 11.5 89
16:00 - 16:30 7.3 7.9 6.8 83 0.0 4.3 220 11.2 20
16:30 - 17:00 6.7 6.9 6.5 88 0.0 2.9 215 9.4 2
17:00 - 17:30 5.8 6.6 5.5 92 0.0 1.8 255 8.3 0
17:30 - 18:00 5.5 5.8 5.1 93 0.0 1.4 323 3.6 0
18:00 - 18:30 5.2 5.5 4.9 94 0.0 1.1 275 4.3 0
18:30 - 19:00 5.5 5.8 5.4 94 0.0 0.4 37 2.2 0
19:00 - 19:30 5.8 6.0 5.6 92 0.0 1.4 20 5.4 0
19:30 - 20:00 6.1 6.1 6.0 92 0.0 0.7 215 2.5 0
20:00 - 20:30 5.8 6.0 5.6 92 0.0 2.2 46 5.8 0
20:30 - 21:00 6.1 6.2 5.9 90 0.0 1.4 348 5.0 0
21:00 - 21:30 5.9 6.2 5.8 90 0.0 0.7 266 4.0 0
21:30 - 22:00 5.7 5.9 5.5 90 0.0 1.4 9 4.3 0

Les dades en taronja només han passat un control de qualitat automàtic. Resta pendent la seva validació definitiva.